createdAt,value
2018-05-10T00:02:04.054Z,41.60
2018-05-10T00:04:31.637Z,41.10
2018-05-10T00:07:09.100Z,36.30
2018-05-10T00:09:36.930Z,44.77
2018-05-10T00:12:06.133Z,38.10
2018-05-10T00:14:33.638Z,39.63
2018-05-10T00:17:01.168Z,38.77
2018-05-10T00:19:28.670Z,41.87
2018-05-10T00:21:56.192Z,37.20
2018-05-10T00:24:23.962Z,38.90
2018-05-10T00:26:52.100Z,44.17
2018-05-10T00:29:19.651Z,43.50
2018-05-10T00:31:47.960Z,42.30
2018-05-10T00:34:15.478Z,35.90
2018-05-10T00:36:43.872Z,36.70
2018-05-10T00:39:11.426Z,36.87
2018-05-10T00:41:38.976Z,43.40
2018-05-10T00:44:07.292Z,37.53
2018-05-10T00:46:34.927Z,40.10
2018-05-10T00:49:03.209Z,32.07
2018-05-10T00:51:30.744Z,37.13
2018-05-10T00:53:59.054Z,30.40
2018-05-10T00:56:26.545Z,32.13
2018-05-10T00:58:54.240Z,32.90
2018-05-10T01:01:22.497Z,31.90
2018-05-10T01:03:50.003Z,30.27
2018-05-10T01:06:17.517Z,29.10
2018-05-10T01:08:45.107Z,31.40
2018-05-10T01:11:12.641Z,27.83
2018-05-10T01:13:40.901Z,31.43
2018-05-10T01:16:09.957Z,29.63
2018-05-10T01:18:37.457Z,34.93
2018-05-10T01:21:05.025Z,36.77
2018-05-10T01:23:33.263Z,29.70
2018-05-10T01:26:00.749Z,31.33
2018-05-10T01:28:29.857Z,33.90
2018-05-10T01:30:58.375Z,34.40
2018-05-10T01:33:25.897Z,37.90
2018-05-10T01:36:06.177Z,33.90
2018-05-10T01:38:33.676Z,43.03
2018-05-10T01:41:01.193Z,48.50
2018-05-10T01:43:28.757Z,46.40
2018-05-10T01:45:56.601Z,41.57
2018-05-10T01:48:24.117Z,43.40
2018-05-10T01:50:51.631Z,48.77
2018-05-10T01:53:19.157Z,52.00
2018-05-10T01:55:48.157Z,47.50
2018-05-10T01:58:16.436Z,50.07
2018-05-10T02:00:43.966Z,47.60
2018-05-10T02:03:12.489Z,50.73
2018-05-10T02:05:39.989Z,44.23
2018-05-10T02:08:07.475Z,50.13
2018-05-10T02:10:35.865Z,51.63
2018-05-10T02:13:04.133Z,48.80
2018-05-10T02:15:32.427Z,48.20
2018-05-10T02:18:00.711Z,45.47
2018-05-10T02:20:28.236Z,46.27
2018-05-10T02:22:55.716Z,50.60
2018-05-10T02:25:23.979Z,44.43
2018-05-10T02:27:52.265Z,46.17
2018-05-10T02:30:20.553Z,46.17
2018-05-10T02:32:48.101Z,50.33
2018-05-10T02:35:16.368Z,49.30
2018-05-10T02:37:44.739Z,44.20
2018-05-10T02:40:12.223Z,47.07
2018-05-10T02:42:40.501Z,49.63
2018-05-10T02:45:08.126Z,43.57
2018-05-10T02:47:35.511Z,40.07
2018-05-10T02:50:03.023Z,38.80
2018-05-10T02:52:30.529Z,36.33
2018-05-10T02:54:58.081Z,36.23
2018-05-10T02:57:26.333Z,33.10
2018-05-10T02:59:53.920Z,36.23
2018-05-10T03:02:21.483Z,33.53
2018-05-10T03:04:49.000Z,37.00
2018-05-10T03:07:16.493Z,35.83
2018-05-10T03:09:44.037Z,30.17
2018-05-10T03:12:12.409Z,33.43
2018-05-10T03:14:39.973Z,38.67
2018-05-10T03:17:08.243Z,31.23
2018-05-10T03:19:35.788Z,32.23
2018-05-10T03:22:03.296Z,32.70
2018-05-10T03:24:30.818Z,32.93
2018-05-10T03:26:59.104Z,30.27
2018-05-10T03:29:27.373Z,31.63
2018-05-10T03:31:55.653Z,35.30
2018-05-10T03:34:24.026Z,31.30
2018-05-10T03:36:52.313Z,32.07
2018-05-10T03:39:20.571Z,33.13
2018-05-10T03:41:48.877Z,31.80
2018-05-10T03:44:17.179Z,31.93
2018-05-10T03:46:44.721Z,31.37
2018-05-10T03:49:12.253Z,33.57
2018-05-10T03:51:40.520Z,41.10
2018-05-10T03:54:08.887Z,32.60
2018-05-10T03:56:36.514Z,31.30
2018-05-10T03:59:04.017Z,31.40
2018-05-10T04:01:32.298Z,33.37
2018-05-10T04:04:12.529Z,38.90
2018-05-10T04:06:52.064Z,35.30
2018-05-10T04:09:31.408Z,39.73
2018-05-10T04:11:58.933Z,37.93
2018-05-10T04:14:26.428Z,46.30
2018-05-10T04:16:55.034Z,42.03
2018-05-10T04:19:23.300Z,40.83
2018-05-10T04:21:51.577Z,44.50
2018-05-10T04:24:19.880Z,39.60
2018-05-10T04:26:47.420Z,37.13
2018-05-10T04:29:14.979Z,37.93
2018-05-10T04:31:43.260Z,39.80
2018-05-10T04:34:10.814Z,41.40
2018-05-10T04:36:39.083Z,36.20
2018-05-10T04:39:08.065Z,43.73
2018-05-10T04:41:36.370Z,36.20
2018-05-10T04:44:04.644Z,43.63
2018-05-10T04:46:32.173Z,44.50
2018-05-10T04:49:01.181Z,37.40
2018-05-10T04:51:29.474Z,38.10
2018-05-10T04:53:57.023Z,39.90
2018-05-10T04:56:25.375Z,40.30
2018-05-10T04:58:52.889Z,38.30
2018-05-10T05:01:20.453Z,33.80
2018-05-10T05:03:47.959Z,34.50
2018-05-10T05:06:16.239Z,33.73
2018-05-10T05:08:44.679Z,40.67
2018-05-10T05:11:12.196Z,33.53
2018-05-10T05:13:49.665Z,31.23
2018-05-10T05:16:17.947Z,26.70
2018-05-10T05:18:46.217Z,33.17
2018-05-10T05:21:13.918Z,28.80
2018-05-10T05:23:41.449Z,30.90
2018-05-10T05:26:09.741Z,26.67
2018-05-10T05:28:37.233Z,27.37
2018-05-10T05:31:04.795Z,21.77
2018-05-10T05:33:32.401Z,24.47
2018-05-10T05:36:00.788Z,22.10
2018-05-10T05:38:29.057Z,26.47
2018-05-10T05:40:57.310Z,22.83
2018-05-10T05:43:25.701Z,22.37
2018-05-10T05:45:53.163Z,23.90
2018-05-10T05:48:20.601Z,22.33
2018-05-10T05:50:48.953Z,24.13
2018-05-10T05:53:16.471Z,24.37
2018-05-10T05:55:43.997Z,22.20
2018-05-10T05:58:12.263Z,24.93
2018-05-10T06:00:39.789Z,28.90
2018-05-10T06:03:07.289Z,26.83
2018-05-10T06:05:35.574Z,28.03
2018-05-10T06:08:03.824Z,34.33
2018-05-10T06:10:31.409Z,30.07
2018-05-10T06:12:59.677Z,30.97
2018-05-10T06:15:27.966Z,31.13
2018-05-10T06:17:56.255Z,34.90
2018-05-10T06:20:23.754Z,34.30
2018-05-10T06:22:51.271Z,32.80
2018-05-10T06:25:18.815Z,36.23
2018-05-10T06:27:47.077Z,31.70
2018-05-10T06:30:15.365Z,33.30
2018-05-10T06:32:43.635Z,32.53
2018-05-10T06:35:11.909Z,34.03
2018-05-10T06:37:40.179Z,35.60
2018-05-10T06:40:08.479Z,37.20
2018-05-10T06:42:35.983Z,37.27
2018-05-10T06:45:04.279Z,34.10
2018-05-10T06:47:32.539Z,35.33
2018-05-10T06:50:01.142Z,38.87
2018-05-10T06:52:28.654Z,35.47
2018-05-10T06:54:56.167Z,38.50
2018-05-10T06:57:24.995Z,36.23
2018-05-10T06:59:52.499Z,36.60
2018-05-10T07:02:21.596Z,50.03
2018-05-10T07:04:49.878Z,33.03
2018-05-10T07:07:17.693Z,37.10
2018-05-10T07:09:45.293Z,31.37
2018-05-10T07:12:13.480Z,32.07
2018-05-10T07:14:41.753Z,34.10
2018-05-10T07:17:09.259Z,33.90
2018-05-10T07:19:36.819Z,33.03
2018-05-10T07:22:04.519Z,35.00
2018-05-10T07:24:33.636Z,36.43
2018-05-10T07:27:01.911Z,30.53
2018-05-10T07:29:29.440Z,32.60
2018-05-10T07:31:57.709Z,33.77
2018-05-10T07:34:25.242Z,34.23
2018-05-10T07:36:52.800Z,34.40
2018-05-10T07:39:20.440Z,32.40
2018-05-10T07:41:48.696Z,32.23
2018-05-10T07:44:16.998Z,34.50
2018-05-10T07:46:44.520Z,34.17
2018-05-10T07:49:12.092Z,35.33
2018-05-10T07:51:40.356Z,32.27
2018-05-10T07:54:07.872Z,33.80
2018-05-10T07:56:35.374Z,35.33
2018-05-10T07:59:02.896Z,33.53
2018-05-10T08:01:30.418Z,28.37
2018-05-10T08:03:57.983Z,28.57
2018-05-10T08:06:25.500Z,32.23
2018-05-10T08:08:53.029Z,27.53
2018-05-10T08:11:20.570Z,30.70
2018-05-10T08:13:48.122Z,32.70
2018-05-10T08:16:15.680Z,31.07
2018-05-10T08:18:43.248Z,31.07
2018-05-10T08:21:10.798Z,29.10
2018-05-10T08:23:47.142Z,27.73
2018-05-10T08:26:15.404Z,30.13
2018-05-10T08:28:43.720Z,36.57
2018-05-10T08:31:11.257Z,27.97
2018-05-10T08:33:38.820Z,34.83
2018-05-10T08:36:06.473Z,40.27
2018-05-10T08:38:34.888Z,33.23
2018-05-10T08:41:02.414Z,37.27
2018-05-10T08:43:30.048Z,32.60
2018-05-10T08:45:57.576Z,37.80
2018-05-10T08:48:25.092Z,35.80
2018-05-10T08:50:53.144Z,39.23
2018-05-10T08:53:21.429Z,44.50
2018-05-10T08:55:48.949Z,32.80
2018-05-10T08:58:16.555Z,36.57
2018-05-10T09:00:44.041Z,22.30
2018-05-10T09:03:11.605Z,31.17
2018-05-10T09:05:39.189Z,30.30
2018-05-10T09:08:07.529Z,25.50
2018-05-10T09:10:35.005Z,29.93
2018-05-10T09:13:02.537Z,17.00
2018-05-10T09:15:30.164Z,14.50
2018-05-10T09:17:58.529Z,12.23
2018-05-10T09:20:26.058Z,15.03
2018-05-10T09:22:53.556Z,9.57
2018-05-10T09:25:21.871Z,16.00
2018-05-10T09:27:49.458Z,10.93
2018-05-10T09:30:16.956Z,10.00
2018-05-10T09:32:45.220Z,14.03
2018-05-10T09:35:13.514Z,12.50
2018-05-10T09:37:41.877Z,12.00
2018-05-10T09:40:10.166Z,8.23
2018-05-10T09:42:38.462Z,7.73
2018-05-10T09:45:05.992Z,10.73
2018-05-10T09:47:33.501Z,7.10
2018-05-10T09:50:01.113Z,7.00
2018-05-10T09:52:29.369Z,8.17
2018-05-10T09:54:58.065Z,10.87
2018-05-10T09:57:26.341Z,13.40
2018-05-10T09:59:54.668Z,13.53
2018-05-10T10:02:22.959Z,7.73
2018-05-10T10:04:50.546Z,9.77
2018-05-10T10:07:18.841Z,4.87
2018-05-10T10:09:46.349Z,4.80
2018-05-10T10:12:13.865Z,8.30
2018-05-10T10:14:41.452Z,5.93
2018-05-10T10:17:09.074Z,9.77
2018-05-10T10:19:36.601Z,11.40
2018-05-10T10:22:04.895Z,14.90
2018-05-10T10:24:33.166Z,11.80
2018-05-10T10:27:01.553Z,10.40
2018-05-10T10:29:29.824Z,8.33
2018-05-10T10:31:58.117Z,10.50
2018-05-10T10:34:26.558Z,10.10
2018-05-10T10:36:54.262Z,12.03
2018-05-10T10:39:21.760Z,11.83
2018-05-10T10:41:49.294Z,11.60
2018-05-10T10:44:16.816Z,8.37
2018-05-10T10:46:45.204Z,11.33
2018-05-10T10:49:13.110Z,9.40
2018-05-10T10:51:41.502Z,7.53
2018-05-10T10:54:09.524Z,9.53
2018-05-10T10:56:37.464Z,8.20
2018-05-10T10:59:05.750Z,12.90
2018-05-10T11:01:34.315Z,10.43
2018-05-10T11:04:03.252Z,12.80
2018-05-10T11:06:30.732Z,11.60
2018-05-10T11:08:58.239Z,13.80
2018-05-10T11:11:26.807Z,10.97
2018-05-10T11:13:54.384Z,10.73
2018-05-10T11:16:22.972Z,11.40
2018-05-10T11:18:50.665Z,15.00
2018-05-10T11:21:18.291Z,17.57
2018-05-10T11:23:45.796Z,16.33
2018-05-10T11:26:13.596Z,12.70
2018-05-10T11:28:41.101Z,19.40
2018-05-10T11:31:09.193Z,20.13
2018-05-10T11:33:36.701Z,21.10
2018-05-10T11:36:05.041Z,19.03
2018-05-10T11:38:32.518Z,18.73
2018-05-10T11:41:00.868Z,14.83
2018-05-10T11:43:28.350Z,16.03
2018-05-10T11:45:56.676Z,23.00
2018-05-10T11:48:24.235Z,16.27
2018-05-10T11:50:52.074Z,17.80
2018-05-10T11:53:19.648Z,18.17
2018-05-10T11:55:47.136Z,22.10
2018-05-10T11:58:14.734Z,16.67
2018-05-10T12:00:43.028Z,14.33
2018-05-10T12:03:10.551Z,16.33
2018-05-10T12:05:38.086Z,21.70
2018-05-10T12:08:05.679Z,19.37
2018-05-10T12:10:34.154Z,25.93
2018-05-10T12:13:02.431Z,20.07
2018-05-10T12:15:29.952Z,25.80
2018-05-10T12:17:57.542Z,26.70
2018-05-10T12:20:25.127Z,20.87
2018-05-10T12:22:53.447Z,29.67
2018-05-10T12:25:21.004Z,27.70
2018-05-10T12:27:48.596Z,34.00
2018-05-10T12:30:16.192Z,30.27
2018-05-10T12:32:44.604Z,24.87
2018-05-10T12:35:12.116Z,26.40
2018-05-10T12:37:40.394Z,31.33
2018-05-10T12:40:08.701Z,28.57
2018-05-10T12:42:36.285Z,30.53
2018-05-10T12:45:03.871Z,24.33
2018-05-10T12:47:31.459Z,25.57
2018-05-10T12:49:59.155Z,29.80
2018-05-10T12:52:26.845Z,25.10
2018-05-10T12:54:54.345Z,23.63
2018-05-10T12:57:21.919Z,22.70
2018-05-10T12:59:49.487Z,26.57
2018-05-10T13:02:16.989Z,27.20
2018-05-10T13:04:45.313Z,28.23
2018-05-10T13:07:13.036Z,25.83
2018-05-10T13:09:40.631Z,26.53
2018-05-10T13:12:08.293Z,24.20
2018-05-10T13:14:35.839Z,21.10
2018-05-10T13:17:04.159Z,29.90
2018-05-10T13:19:31.666Z,23.53
2018-05-10T13:21:59.951Z,26.33
2018-05-10T13:24:27.461Z,22.47
2018-05-10T13:26:55.729Z,28.90
2018-05-10T13:29:23.250Z,27.90
2018-05-10T13:31:50.886Z,26.17
2018-05-10T13:34:19.158Z,26.30
2018-05-10T13:36:47.453Z,31.07
2018-05-10T13:39:15.060Z,31.17
2018-05-10T13:41:42.582Z,24.50
2018-05-10T13:44:10.095Z,21.10
2018-05-10T13:46:39.087Z,20.10
2018-05-10T13:49:07.396Z,29.13
2018-05-10T13:51:35.732Z,25.17
2018-05-10T13:54:03.278Z,21.13
2018-05-10T13:56:30.861Z,28.60
2018-05-10T13:58:58.413Z,25.17
2018-05-10T14:01:26.002Z,25.63
2018-05-10T14:03:54.282Z,26.20
2018-05-10T14:06:21.800Z,22.77
2018-05-10T14:08:49.422Z,23.57
2018-05-10T14:11:16.902Z,29.20
2018-05-10T14:13:44.395Z,23.60
2018-05-10T14:16:15.694Z,22.97
2018-05-10T14:18:43.394Z,24.80
2018-05-10T14:21:12.128Z,23.03
2018-05-10T14:23:39.708Z,25.90
2018-05-10T14:26:07.258Z,21.17
2018-05-10T14:28:34.742Z,26.47
2018-05-10T14:31:02.616Z,26.53
2018-05-10T14:33:30.148Z,23.37
2018-05-10T14:35:57.696Z,27.23
2018-05-10T14:38:25.193Z,20.97
2018-05-10T14:40:52.720Z,29.57
2018-05-10T14:43:20.243Z,22.83
2018-05-10T14:45:47.756Z,24.87
2018-05-10T14:48:15.288Z,20.70
2018-05-10T14:50:42.799Z,23.13
2018-05-10T14:53:10.321Z,24.30
2018-05-10T14:55:37.919Z,21.60
2018-05-10T14:58:06.205Z,21.10
2018-05-10T15:00:34.465Z,22.87
2018-05-10T15:03:02.841Z,24.07
2018-05-10T15:05:31.193Z,25.93
2018-05-10T15:07:58.725Z,21.20
2018-05-10T15:10:26.301Z,21.70
2018-05-10T15:12:53.817Z,23.67
2018-05-10T15:15:21.323Z,29.97
2018-05-10T15:17:48.861Z,24.40
2018-05-10T15:20:16.393Z,24.10
2018-05-10T15:22:44.765Z,34.80
2018-05-10T15:25:12.310Z,31.37
2018-05-10T15:27:40.652Z,24.03
2018-05-10T15:30:08.678Z,23.63
2018-05-10T15:32:36.446Z,21.27
2018-05-10T15:35:04.298Z,20.83
2018-05-10T15:37:32.992Z,22.77
2018-05-10T15:40:00.553Z,21.90
2018-05-10T15:42:28.112Z,27.83
2018-05-10T15:44:56.362Z,18.20
2018-05-10T15:47:25.088Z,19.17
2018-05-10T15:49:52.630Z,19.20
2018-05-10T15:52:20.996Z,19.03
2018-05-10T15:54:49.293Z,20.97
2018-05-10T15:57:16.861Z,17.90
2018-05-10T15:59:44.359Z,18.30
2018-05-10T16:02:13.338Z,20.60
2018-05-10T16:04:40.874Z,18.50
2018-05-10T16:07:08.386Z,17.27
2018-05-10T16:09:36.938Z,18.07
2018-05-10T16:12:04.534Z,17.20
2018-05-10T16:14:32.824Z,14.30
2018-05-10T16:17:00.383Z,16.83
2018-05-10T16:19:27.912Z,14.97
2018-05-10T16:21:56.200Z,19.77
2018-05-10T16:24:24.526Z,13.63
2018-05-10T16:26:58.436Z,14.57
2018-05-10T16:29:25.943Z,13.77
2018-05-10T16:31:54.242Z,11.83
2018-05-10T16:34:21.734Z,17.03
2018-05-10T16:36:49.298Z,12.40
2018-05-10T16:39:17.109Z,10.47
2018-05-10T16:41:44.647Z,14.63
2018-05-10T16:44:13.068Z,14.50
2018-05-10T16:46:40.579Z,13.60
2018-05-10T16:49:08.877Z,10.40
2018-05-10T16:51:37.179Z,11.60
2018-05-10T16:54:04.696Z,12.80
2018-05-10T16:56:32.248Z,11.37
2018-05-10T16:58:59.827Z,8.37
2018-05-10T17:01:28.246Z,11.07
2018-05-10T17:03:55.860Z,12.97
2018-05-10T17:09:07.462Z,10.27
2018-05-10T17:11:35.908Z,10.97
2018-05-10T17:14:03.540Z,7.90
2018-05-10T17:16:31.174Z,10.03
2018-05-10T17:18:58.683Z,13.47
2018-05-10T17:21:26.874Z,10.40
2018-05-10T17:23:54.494Z,13.47
2018-05-10T17:26:22.018Z,8.10
2018-05-10T17:28:50.277Z,8.90
2018-05-10T17:31:17.785Z,10.67
2018-05-10T17:33:45.717Z,9.90
2018-05-10T17:36:14.045Z,8.73
2018-05-10T17:38:41.662Z,17.73
2018-05-10T17:41:10.705Z,15.20
2018-05-10T17:43:38.368Z,36.90
2018-05-10T17:46:06.113Z,28.60
2018-05-10T17:48:33.657Z,21.73
2018-05-10T17:51:01.358Z,43.17
2018-05-10T17:53:28.937Z,29.97
2018-05-10T17:55:56.697Z,70.23
2018-05-10T17:58:25.724Z,47.70
2018-05-10T18:00:53.264Z,73.83
2018-05-10T18:03:21.518Z,62.47
2018-05-10T18:05:50.542Z,77.00
2018-05-10T18:08:18.840Z,35.50
2018-05-10T18:10:46.681Z,28.70
2018-05-10T18:13:15.060Z,22.53
2018-05-10T18:15:43.395Z,29.20
2018-05-10T18:18:10.917Z,18.73
2018-05-10T18:20:38.421Z,30.03
2018-05-10T18:23:06.021Z,13.67
2018-05-10T18:25:34.366Z,21.73
2018-05-10T18:28:03.391Z,26.33
2018-05-10T18:30:30.997Z,15.37
2018-05-10T18:32:59.068Z,19.20
2018-05-10T18:35:27.142Z,10.67
2018-05-10T18:37:54.844Z,18.47
2018-05-10T18:40:23.134Z,15.53
2018-05-10T18:42:50.838Z,17.70
2018-05-10T18:45:18.343Z,17.30
2018-05-10T18:47:47.972Z,13.87
2018-05-10T18:50:15.636Z,12.40
2018-05-10T18:52:43.148Z,10.10
2018-05-10T18:55:10.753Z,11.60
2018-05-10T18:57:38.245Z,18.43
2018-05-10T19:00:14.045Z,12.33
2018-05-10T19:02:41.545Z,13.67
2018-05-10T19:05:09.407Z,12.10
2018-05-10T19:07:37.029Z,13.40
2018-05-10T19:10:05.333Z,8.37
2018-05-10T19:12:32.875Z,10.00
2018-05-10T19:15:00.490Z,16.07
2018-05-10T19:17:28.745Z,13.17
2018-05-10T19:19:56.294Z,10.87
2018-05-10T19:22:23.809Z,10.40
2018-05-10T19:24:52.081Z,11.13
2018-05-10T19:27:20.387Z,14.70
2018-05-10T19:29:47.897Z,9.20
2018-05-10T19:32:15.403Z,13.13
2018-05-10T19:34:43.413Z,22.10
2018-05-10T19:37:11.777Z,7.27
2018-05-10T19:39:50.149Z,6.93
2018-05-10T19:42:20.484Z,13.37
2018-05-10T19:44:48.130Z,8.10
2018-05-10T19:47:17.229Z,7.47
2018-05-10T19:49:44.725Z,10.70
2018-05-10T19:52:12.264Z,10.27
2018-05-10T19:54:39.757Z,12.43
2018-05-10T19:57:07.286Z,6.63
2018-05-10T19:59:35.149Z,6.03
2018-05-10T20:02:02.781Z,6.63
2018-05-10T20:04:30.299Z,8.27
2018-05-10T20:06:57.844Z,9.37
2018-05-10T20:09:25.367Z,5.80
2018-05-10T20:11:52.892Z,9.47
2018-05-10T20:14:21.183Z,10.20
2018-05-10T20:16:49.508Z,9.27
2018-05-10T20:19:17.090Z,35.63
2018-05-10T20:21:45.451Z,12.40
2018-05-10T20:24:13.064Z,8.40
2018-05-10T20:26:40.578Z,9.03
2018-05-10T20:29:08.130Z,15.30
2018-05-10T20:31:35.659Z,9.17
2018-05-10T20:34:03.201Z,9.13
2018-05-10T20:36:30.728Z,10.23
2018-05-10T20:38:59.005Z,17.20
2018-05-10T20:41:27.985Z,8.40
2018-05-10T20:43:55.527Z,11.60
2018-05-10T20:46:23.038Z,8.70
2018-05-10T20:48:50.552Z,8.23
2018-05-10T20:51:18.044Z,8.23
2018-05-10T20:53:46.370Z,7.50
2018-05-10T20:56:13.883Z,10.97
2018-05-10T20:58:43.003Z,6.70
2018-05-10T21:01:10.695Z,5.80
2018-05-10T21:03:38.273Z,5.90
2018-05-10T21:06:05.993Z,7.37
2018-05-10T21:08:33.526Z,8.67
2018-05-10T21:11:01.065Z,7.97
2018-05-10T21:13:30.061Z,5.97
2018-05-10T21:15:58.473Z,7.40
2018-05-10T21:18:25.935Z,6.80
2018-05-10T21:20:53.449Z,10.40
2018-05-10T21:23:21.717Z,6.37
2018-05-10T21:25:50.729Z,8.60
2018-05-10T21:28:18.992Z,8.70
2018-05-10T21:30:46.520Z,6.60
2018-05-10T21:33:16.883Z,7.90
2018-05-10T21:35:45.781Z,6.93
2018-05-10T21:38:14.145Z,9.10
2018-05-10T21:40:42.425Z,9.17
2018-05-10T21:43:10.673Z,9.77
2018-05-10T21:45:38.473Z,9.53
2018-05-10T21:48:06.745Z,7.97
2018-05-10T21:50:35.025Z,7.90
2018-05-10T21:53:03.277Z,7.27
2018-05-10T21:55:31.573Z,6.50
2018-05-10T21:57:59.894Z,6.73
2018-05-10T22:00:27.613Z,6.83
2018-05-10T22:02:55.939Z,26.60
2018-05-10T22:05:23.541Z,13.60
2018-05-10T22:07:51.925Z,6.93
2018-05-10T22:10:20.303Z,11.40
2018-05-10T22:12:48.570Z,8.50
2018-05-10T22:15:16.957Z,8.60
2018-05-10T22:17:45.241Z,7.70
2018-05-10T22:20:13.553Z,9.57
2018-05-10T22:22:41.452Z,12.50
2018-05-10T22:25:08.894Z,8.10
2018-05-10T22:27:36.596Z,8.07
2018-05-10T22:30:05.162Z,8.30
2018-05-10T22:32:32.763Z,7.60
2018-05-10T22:35:00.292Z,9.57
2018-05-10T22:37:27.765Z,7.70
2018-05-10T22:39:55.274Z,10.17
2018-05-10T22:42:22.767Z,5.87
2018-05-10T22:44:51.139Z,5.87
2018-05-10T22:47:18.650Z,9.23
2018-05-10T22:49:46.168Z,7.80
2018-05-10T22:52:14.736Z,11.87
2018-05-10T22:54:43.067Z,9.17
2018-05-10T22:57:10.591Z,10.87
2018-05-10T22:59:38.102Z,7.50
2018-05-10T23:02:05.703Z,7.17
2018-05-10T23:04:33.269Z,11.73
2018-05-10T23:07:00.761Z,7.83
2018-05-10T23:09:28.256Z,7.53
2018-05-10T23:11:56.093Z,7.50
2018-05-10T23:14:23.600Z,13.03
2018-05-10T23:16:51.903Z,9.53
2018-05-10T23:19:19.398Z,8.70
2018-05-10T23:21:46.899Z,10.17
2018-05-10T23:24:14.414Z,10.17
2018-05-10T23:26:41.906Z,10.07
2018-05-10T23:29:09.429Z,8.27
2018-05-10T23:31:36.922Z,8.97
2018-05-10T23:34:05.241Z,10.83
2018-05-10T23:36:32.767Z,13.93
2018-05-10T23:39:00.280Z,13.50
2018-05-10T23:41:27.863Z,7.87
2018-05-10T23:43:56.212Z,11.27
2018-05-10T23:46:24.485Z,7.13
2018-05-10T23:48:52.012Z,10.37
2018-05-10T23:51:19.586Z,8.80
2018-05-10T23:53:47.070Z,8.50
2018-05-10T23:56:14.594Z,11.30
2018-05-10T23:58:42.096Z,11.85
